Nordic — PBGD — position and weather

sailwx.info

Track history (hours):
 
Tides and Currents Weather Stations Pressure Air Temp Water Temp Dewpoint Dewpoint Depression Visibility Wind Speed Wind Dir Waves Ship Positions

Nordic

Last reported at 2018-Jul-18 23:52 UTC. Time now 2018-Jul-20 04:17 UTC.
Position N 32°51' E 034°59'.

Length 92 m; draft 3.9 m.

Type: Cargo ship. MMSI: 244868000.

Date/timePositionNaut miles runAvg speedWind from/ knotsBaromVisibWave heightAir tempDewpointWater temp
2018-Jul-18 23:52N 32°51' E 034°59'411.1
2018-Jul-18 23:30N 32°53' E 034°55'510.6
2018-Jul-18 23:00N 32°51' E 034°49'612.5
2018-Jul-18 22:30N 32°46' E 034°43'612.4
2018-Jul-18 22:00N 32°42' E 034°38'612.2
2018-Jul-18 21:30N 32°39' E 034°32'612.0
2018-Jul-18 21:00N 32°35' E 034°27'8 2.6
2018-Jul-18 17:53N 32°28' E 034°22'0 0.5
2018-Jul-18 17:23N 32°28' E 034°22'0 0.8
2018-Jul-18 17:00N 32°28' E 034°22'0 0.8
2018-Jul-18 16:30N 32°27' E 034°22'0 0.8
2018-Jul-18 16:00N 32°27' E 034°22'0 0.8
2018-Jul-18 15:30N 32°27' E 034°21'0 0.5
2018-Jul-18 15:00N 32°27' E 034°21'3 6.6
2018-Jul-18 14:30N 32°28' E 034°24'1110.6
2018-Jul-18 13:30N 32°36' E 034°33'510.3
2018-Jul-18 13:00N 32°39' E 034°38'510.1
2018-Jul-18 12:30N 32°42' E 034°42'5 9.6
2018-Jul-18 12:00N 32°45' E 034°47'5 9.4
2018-Jul-18 11:30N 32°48' E 034°51'  
Track history (hours):
 
Tides and Currents Weather Stations Pressure Air Temp Water Temp Dewpoint Dewpoint Depression Visibility Wind Speed Wind Dir Waves Ship Positions

Nordic

Last reported at 2018-Jul-18 23:52 UTC. Time now 2018-Jul-20 04:17 UTC.
Position N 32°51' E 034°59'.

Length 92 m; draft 3.9 m.

Type: Cargo ship. MMSI: 244868000.

Date/timePositionNaut miles runAvg speedWind from/ knotsBaromVisibWave heightAir tempDewpointWater temp
2018-Jul-18 23:52N 32°51' E 034°59'411.1
2018-Jul-18 23:30N 32°53' E 034°55'510.6
2018-Jul-18 23:00N 32°51' E 034°49'612.5
2018-Jul-18 22:30N 32°46' E 034°43'612.4
2018-Jul-18 22:00N 32°42' E 034°38'612.2
2018-Jul-18 21:30N 32°39' E 034°32'612.0
2018-Jul-18 21:00N 32°35' E 034°27'8 2.6
2018-Jul-18 17:53N 32°28' E 034°22'0 0.5
2018-Jul-18 17:23N 32°28' E 034°22'0 0.8
2018-Jul-18 17:00N 32°28' E 034°22'0 0.8
2018-Jul-18 16:30N 32°27' E 034°22'0 0.8
2018-Jul-18 16:00N 32°27' E 034°22'0 0.8
2018-Jul-18 15:30N 32°27' E 034°21'0 0.5
2018-Jul-18 15:00N 32°27' E 034°21'3 6.6
2018-Jul-18 14:30N 32°28' E 034°24'1110.6
2018-Jul-18 13:30N 32°36' E 034°33'510.3
2018-Jul-18 13:00N 32°39' E 034°38'510.1
2018-Jul-18 12:30N 32°42' E 034°42'5 9.6
2018-Jul-18 12:00N 32°45' E 034°47'5 9.4
2018-Jul-18 11:30N 32°48' E 034°51'  

Dump ship's entire track history